Terminal Aerodrome Forecast
Issued by NWS

Home | Current Version | Previous Version | Text Only | Print | Product List | Glossary On
Versions: 1 2 3 4 5 6 7 8 9 10 11 12 13 14
000
FTUS45 KTFX 022345
TAFCTB
TAF
KCTB 022345Z 0300/0324 26020G28KT P6SM SCT090 BKN150
     FM030300 28012KT P6SM BKN100
     FM030900 30010KT P6SM -RA BKN045=

USA.gov is the U.S. government's official web portal to all federal, state and local government web resources and services.